createdAt,value
2024-03-05T00:02:44.916Z,5.25
2024-03-05T00:05:46.793Z,5.26
2024-03-05T00:08:48.506Z,5.24
2024-03-05T00:11:50.293Z,5.24
2024-03-05T00:14:52.022Z,5.20
2024-03-05T00:17:53.840Z,5.13
2024-03-05T00:20:58.269Z,5.12
2024-03-05T00:23:59.957Z,5.15
2024-03-05T00:27:01.670Z,5.14
2024-03-05T00:30:05.432Z,5.12
2024-03-05T00:33:07.523Z,5.12
2024-03-05T00:36:09.616Z,5.06
2024-03-05T00:39:11.325Z,4.98
2024-03-05T00:42:13.145Z,4.97
2024-03-05T00:45:18.240Z,4.95
2024-03-05T00:48:20.477Z,4.89
2024-03-05T00:51:22.302Z,4.83
2024-03-05T00:54:24.797Z,4.79
2024-03-05T00:57:27.000Z,4.80
2024-03-05T01:00:28.726Z,4.73
2024-03-05T01:03:30.494Z,4.73
2024-03-05T01:06:32.643Z,4.71
2024-03-05T01:09:34.361Z,4.74
2024-03-05T01:12:36.698Z,4.72
2024-03-05T01:15:38.539Z,4.70
2024-03-05T01:18:40.308Z,4.72
2024-03-05T01:21:42.278Z,4.64
2024-03-05T01:24:44.023Z,4.62
2024-03-05T01:27:46.554Z,4.63
2024-03-05T01:30:48.869Z,4.66
2024-03-05T01:33:50.714Z,4.69
2024-03-05T01:36:58.197Z,4.72
2024-03-05T01:40:00.096Z,4.75
2024-03-05T01:43:01.760Z,4.73
2024-03-05T01:46:03.840Z,4.81
2024-03-05T01:49:05.959Z,4.87
2024-03-05T01:52:07.683Z,4.90
2024-03-05T01:55:12.480Z,4.97
2024-03-05T01:58:18.540Z,5.00
2024-03-05T02:01:20.318Z,5.07
2024-03-05T02:04:23.138Z,5.13
2024-03-05T02:07:25.359Z,5.15
2024-03-05T02:10:28.107Z,5.17
2024-03-05T02:13:30.133Z,5.19
2024-03-05T02:16:31.826Z,5.20
2024-03-05T02:19:34.537Z,5.21
2024-03-05T02:22:38.552Z,5.17
2024-03-05T02:25:41.723Z,5.16
2024-03-05T02:28:43.553Z,5.16
2024-03-05T02:31:46.420Z,5.19
2024-03-05T02:34:50.156Z,5.22
2024-03-05T02:37:52.204Z,5.25
2024-03-05T02:40:54.575Z,5.27
2024-03-05T02:43:57.634Z,5.28
2024-03-05T02:46:59.661Z,5.30
2024-03-05T02:50:02.026Z,5.26
2024-03-05T02:53:05.521Z,5.28
2024-03-05T02:56:07.828Z,5.02
2024-03-05T02:59:09.595Z,4.86
2024-03-05T03:02:11.407Z,4.88
2024-03-05T03:05:14.118Z,4.91
2024-03-05T03:08:17.904Z,5.05
2024-03-05T03:11:20.099Z,5.13
2024-03-05T03:14:22.423Z,5.23
2024-03-05T03:17:24.155Z,5.28
2024-03-05T03:20:26.102Z,5.34
2024-03-05T03:23:27.932Z,5.34
2024-03-05T03:26:29.660Z,5.32
2024-03-05T03:29:31.429Z,5.41
2024-03-05T03:32:33.752Z,5.48
2024-03-05T03:35:36.227Z,5.47
2024-03-05T03:38:37.993Z,5.54
2024-03-05T03:41:40.728Z,5.61
2024-03-05T03:44:42.460Z,5.61
2024-03-05T03:47:44.882Z,5.63
2024-03-05T03:50:46.664Z,5.72
2024-03-05T03:53:48.525Z,5.72
2024-03-05T03:56:50.419Z,5.71
2024-03-05T03:59:52.233Z,5.76
2024-03-05T04:02:54.104Z,5.76
2024-03-05T04:05:55.868Z,5.66
2024-03-05T04:08:57.603Z,5.72
2024-03-05T04:11:59.321Z,5.70
2024-03-05T04:15:01.667Z,5.78
2024-03-05T04:18:03.703Z,5.77
2024-03-05T04:21:05.582Z,5.76
2024-03-05T04:24:07.896Z,5.77
2024-03-05T04:27:12.780Z,5.77
2024-03-05T04:30:15.036Z,5.74
2024-03-05T04:33:18.278Z,5.65
2024-03-05T04:36:20.051Z,5.68
2024-03-05T04:39:23.242Z,5.70
2024-03-05T04:42:28.018Z,5.69
2024-03-05T04:45:29.704Z,5.72
2024-03-05T04:48:31.845Z,5.73
2024-03-05T04:51:33.604Z,5.64
2024-03-05T04:54:35.957Z,5.64
2024-03-05T04:57:37.670Z,5.68
2024-03-05T05:00:39.511Z,5.70
2024-03-05T05:03:44.051Z,5.73
2024-03-05T05:06:45.776Z,5.73
2024-03-05T05:09:47.515Z,5.73
2024-03-05T05:12:50.335Z,5.43
2024-03-05T05:15:52.102Z,5.72
2024-03-05T05:18:54.050Z,5.70
2024-03-05T05:21:55.736Z,5.73
2024-03-05T05:24:57.490Z,5.66
2024-03-05T05:27:59.227Z,5.69
2024-03-05T05:31:00.971Z,5.72
2024-03-05T05:34:02.765Z,5.69
2024-03-05T05:37:05.927Z,5.74
2024-03-05T05:40:12.167Z,5.75
2024-03-05T05:43:14.293Z,5.75
2024-03-05T05:46:17.029Z,5.76
2024-03-05T05:49:21.592Z,5.77
2024-03-05T05:52:23.796Z,5.74
2024-03-05T05:55:26.966Z,5.80
2024-03-05T05:58:29.262Z,5.82
2024-03-05T06:01:32.470Z,5.78
2024-03-05T06:04:34.641Z,5.80
2024-03-05T06:07:36.421Z,5.83
2024-03-05T06:10:38.838Z,5.85
2024-03-05T06:13:41.831Z,5.82
2024-03-05T06:16:54.983Z,5.82
2024-03-05T06:20:00.022Z,5.74
2024-03-05T06:23:02.526Z,5.76
2024-03-05T06:26:04.981Z,5.81
2024-03-05T06:29:11.062Z,5.85
2024-03-05T06:32:13.189Z,5.88
2024-03-05T06:35:27.996Z,5.88
2024-03-05T06:38:30.832Z,5.90
2024-03-05T06:41:33.013Z,5.90
2024-03-05T06:44:37.635Z,5.91
2024-03-05T06:47:48.457Z,5.87
2024-03-05T06:50:58.877Z,5.80
2024-03-05T06:54:19.232Z,5.84
2024-03-05T06:57:21.674Z,5.85
2024-03-05T07:00:25.634Z,6.05
2024-03-05T07:03:27.397Z,6.42
2024-03-05T07:06:31.872Z,6.84
2024-03-05T07:09:34.220Z,7.18
2024-03-05T07:12:36.058Z,7.46
2024-03-05T07:15:37.901Z,7.65
2024-03-05T07:18:39.738Z,7.92
2024-03-05T07:21:41.561Z,8.14
2024-03-05T07:24:43.302Z,8.39
2024-03-05T07:27:49.047Z,8.67
2024-03-05T07:30:50.789Z,8.91
2024-03-05T07:33:53.781Z,9.09
2024-03-05T07:36:55.709Z,9.30
2024-03-05T07:39:57.392Z,9.52
2024-03-05T07:43:00.282Z,9.71
2024-03-05T07:46:02.033Z,9.54
2024-03-05T07:49:05.439Z,9.92
2024-03-05T07:52:07.468Z,10.06
2024-03-05T07:55:16.538Z,10.22
2024-03-05T07:58:18.344Z,10.54
2024-03-05T08:01:20.566Z,10.80
2024-03-05T08:04:22.359Z,11.10
2024-03-05T08:07:24.136Z,11.13
2024-03-05T08:10:26.628Z,11.48
2024-03-05T08:13:29.697Z,11.56
2024-03-05T08:16:34.884Z,11.88
2024-03-05T08:19:38.063Z,11.70
2024-03-05T08:22:40.258Z,12.10
2024-03-05T08:25:43.197Z,12.21
2024-03-05T08:28:46.448Z,12.62
2024-03-05T08:31:48.290Z,13.00
2024-03-05T08:34:51.697Z,13.26
2024-03-05T08:37:54.156Z,13.33
2024-03-05T08:40:56.085Z,13.22
2024-03-05T08:43:57.928Z,13.57
2024-03-05T08:46:59.840Z,13.84
2024-03-05T08:50:01.758Z,13.82
2024-03-05T08:53:05.826Z,13.56
2024-03-05T08:56:08.819Z,13.70
2024-03-05T08:59:10.615Z,14.00
2024-03-05T09:02:12.350Z,14.38
2024-03-05T09:05:14.607Z,14.81
2024-03-05T09:08:16.323Z,14.79
2024-03-05T09:15:28.881Z,15.48
2024-03-05T09:18:30.603Z,15.53
2024-03-05T09:21:36.534Z,15.65
2024-03-05T09:24:38.287Z,15.74
2024-03-05T09:27:42.006Z,15.57
2024-03-05T09:30:43.753Z,15.44
2024-03-05T09:33:45.959Z,15.47
2024-03-05T09:36:47.823Z,15.89
2024-03-05T09:39:51.953Z,16.00
2024-03-05T09:42:56.122Z,15.89
2024-03-05T09:46:06.035Z,16.18
2024-03-05T09:49:17.913Z,16.41
2024-03-05T09:52:25.058Z,16.57
2024-03-05T09:55:27.598Z,16.66
2024-03-05T09:58:37.324Z,16.77
2024-03-05T10:01:40.316Z,16.71
2024-03-05T10:04:42.810Z,16.45
2024-03-05T10:07:50.954Z,15.59
2024-03-05T10:11:03.444Z,15.78
2024-03-05T10:14:11.725Z,15.87
2024-03-05T10:17:13.452Z,16.43
2024-03-05T10:20:33.048Z,16.25
2024-03-05T10:27:57.211Z,16.52
2024-03-05T10:30:59.739Z,16.65
2024-03-05T10:34:01.483Z,16.48
2024-03-05T10:37:05.358Z,16.42
2024-03-05T10:40:39.025Z,16.54
2024-03-05T10:43:41.535Z,16.59
2024-03-05T10:46:44.322Z,16.90
2024-03-05T10:49:46.698Z,17.00
2024-03-05T10:52:49.724Z,16.67
2024-03-05T10:55:54.374Z,16.95
2024-03-05T10:59:11.504Z,17.26
2024-03-05T11:02:14.771Z,17.00
2024-03-05T11:05:18.996Z,16.99
2024-03-05T11:08:22.498Z,17.06
2024-03-05T11:11:25.635Z,16.91
2024-03-05T11:14:27.876Z,16.94
2024-03-05T11:17:31.237Z,16.31
2024-03-05T11:20:41.877Z,16.58
2024-03-05T11:23:54.305Z,16.70
2024-03-05T11:27:12.771Z,16.79
2024-03-05T11:30:18.222Z,16.92
2024-03-05T11:33:25.508Z,16.98
2024-03-05T11:36:27.464Z,16.91
2024-03-05T11:39:29.225Z,16.72
2024-03-05T11:42:33.996Z,16.87
2024-03-05T11:45:46.205Z,16.96
2024-03-05T11:48:47.995Z,17.18
2024-03-05T11:51:50.404Z,17.20
2024-03-05T11:55:06.501Z,17.09
2024-03-05T11:58:08.884Z,17.05
2024-03-05T12:01:10.829Z,16.83
2024-03-05T12:04:13.156Z,17.06
2024-03-05T12:07:15.196Z,17.08
2024-03-05T12:10:21.284Z,17.02
2024-03-05T12:13:23.093Z,17.01
2024-03-05T12:16:24.988Z,17.12
2024-03-05T12:19:27.542Z,17.02
2024-03-05T12:22:29.540Z,16.97
2024-03-05T12:25:31.430Z,17.01
2024-03-05T12:28:33.581Z,16.86
2024-03-05T12:31:35.881Z,16.89
2024-03-05T12:34:38.288Z,16.91
2024-03-05T12:37:40.910Z,16.97
2024-03-05T12:40:43.100Z,16.95
2024-03-05T12:43:54.797Z,16.92
2024-03-05T12:47:15.240Z,16.98
2024-03-05T12:50:19.521Z,16.88
2024-03-05T12:53:21.535Z,16.83
2024-03-05T12:56:23.341Z,16.67
2024-03-05T12:59:25.412Z,16.64
2024-03-05T13:02:30.587Z,16.60
2024-03-05T13:05:33.417Z,16.59
2024-03-05T13:08:35.476Z,16.60
2024-03-05T13:11:37.408Z,16.71
2024-03-05T13:14:39.216Z,16.78
2024-03-05T13:17:41.876Z,16.82
2024-03-05T13:20:43.864Z,16.68
2024-03-05T13:23:46.846Z,16.79
2024-03-05T13:26:49.216Z,16.73
2024-03-05T13:29:58.741Z,16.72
2024-03-05T13:33:07.628Z,16.74
2024-03-05T13:36:13.363Z,16.60
2024-03-05T13:39:19.328Z,16.50
2024-03-05T13:42:21.082Z,16.51
2024-03-05T13:45:22.804Z,16.43
2024-03-05T13:48:24.822Z,16.34
2024-03-05T13:51:28.124Z,16.32
2024-03-05T13:54:30.689Z,16.40
2024-03-05T13:57:32.765Z,16.29
2024-03-05T14:00:34.722Z,16.30
2024-03-05T14:03:38.440Z,16.31
2024-03-05T14:06:41.488Z,16.08
2024-03-05T14:09:46.962Z,16.07
2024-03-05T14:12:50.615Z,16.15
2024-03-05T14:15:53.410Z,15.96
2024-03-05T14:18:55.274Z,15.93
2024-03-05T14:22:01.437Z,15.96
2024-03-05T14:25:03.907Z,15.92
2024-03-05T14:28:09.313Z,15.76
2024-03-05T14:31:12.662Z,15.74
2024-03-05T14:34:14.622Z,15.69
2024-03-05T14:37:16.581Z,15.59
2024-03-05T14:40:19.971Z,15.59
2024-03-05T14:43:22.869Z,15.43
2024-03-05T14:46:26.047Z,15.49
2024-03-05T14:49:28.274Z,15.34
2024-03-05T14:52:30.502Z,15.32
2024-03-05T14:55:32.331Z,15.30
2024-03-05T14:58:34.481Z,15.24
2024-03-05T15:01:36.690Z,15.27
2024-03-05T15:04:38.705Z,15.15
2024-03-05T15:07:41.872Z,15.14
2024-03-05T15:10:43.845Z,15.08
2024-03-05T15:13:45.704Z,15.03
2024-03-05T15:16:47.591Z,14.88
2024-03-05T15:19:50.697Z,14.51
2024-03-05T15:22:53.553Z,14.72
2024-03-05T15:25:58.333Z,14.66
2024-03-05T15:29:00.635Z,14.54
2024-03-05T15:32:03.013Z,14.46
2024-03-05T15:35:07.054Z,14.36
2024-03-05T15:38:09.284Z,14.28
2024-03-05T15:41:11.848Z,14.23
2024-03-05T15:44:13.905Z,14.13
2024-03-05T15:47:15.920Z,14.01
2024-03-05T15:50:21.551Z,13.95
2024-03-05T15:53:24.241Z,13.90
2024-03-05T15:56:36.009Z,13.85
2024-03-05T15:59:56.549Z,13.76
2024-03-05T16:03:01.406Z,13.69
2024-03-05T16:06:10.786Z,13.61
2024-03-05T16:09:20.378Z,13.40
2024-03-05T16:12:25.206Z,13.40
2024-03-05T16:15:28.088Z,13.34
2024-03-05T16:18:30.131Z,13.29
2024-03-05T16:21:34.420Z,13.23
2024-03-05T16:24:36.458Z,13.19
2024-03-05T16:27:48.876Z,13.10
2024-03-05T16:30:51.856Z,13.02
2024-03-05T16:33:54.272Z,12.90
2024-03-05T16:36:56.785Z,12.86
2024-03-05T16:39:59.561Z,12.78
2024-03-05T16:43:04.013Z,12.68
2024-03-05T16:46:06.274Z,12.64
2024-03-05T16:49:09.380Z,12.26
2024-03-05T16:52:11.522Z,12.39
2024-03-05T16:55:15.218Z,12.42
2024-03-05T16:58:19.464Z,12.38
2024-03-05T17:01:23.640Z,12.32
2024-03-05T17:04:27.869Z,11.93
2024-03-05T17:07:33.079Z,12.20
2024-03-05T17:10:36.868Z,12.16
2024-03-05T17:13:42.629Z,12.10
2024-03-05T17:16:47.105Z,11.78
2024-03-05T17:19:49.053Z,11.97
2024-03-05T17:22:53.118Z,11.90
2024-03-05T17:25:57.226Z,11.86
2024-03-05T17:29:06.536Z,11.83
2024-03-05T17:32:10.753Z,11.81
2024-03-05T17:35:20.660Z,11.75
2024-03-05T17:38:28.291Z,11.73
2024-03-05T17:41:36.325Z,11.73
2024-03-05T17:44:38.111Z,11.72
2024-03-05T17:47:40.337Z,11.38
2024-03-05T17:50:42.404Z,11.70
2024-03-05T17:53:45.278Z,11.67
2024-03-05T17:56:47.178Z,11.64
2024-03-05T17:59:49.967Z,11.64
2024-03-05T18:02:53.273Z,11.56
2024-03-05T18:05:55.371Z,11.52
2024-03-05T18:08:57.560Z,11.48
2024-03-05T18:12:02.113Z,11.47
2024-03-05T18:15:08.344Z,11.41
2024-03-05T18:18:10.488Z,11.37
2024-03-05T18:21:14.414Z,11.28
2024-03-05T18:24:16.270Z,11.23
2024-03-05T18:27:18.756Z,11.20
2024-03-05T18:30:25.848Z,11.12
2024-03-05T18:33:27.970Z,11.03
2024-03-05T18:36:30.625Z,11.04
2024-03-05T18:39:36.309Z,11.00
2024-03-05T18:42:39.760Z,10.90
2024-03-05T18:45:41.838Z,10.85
2024-03-05T18:48:43.671Z,10.80
2024-03-05T18:51:46.905Z,10.79
2024-03-05T18:54:49.569Z,10.75
2024-03-05T18:57:51.725Z,10.72
2024-03-05T19:00:54.170Z,10.67
2024-03-05T19:04:04.665Z,10.63
2024-03-05T19:07:08.175Z,10.63
2024-03-05T19:10:10.753Z,10.61
2024-03-05T19:13:12.727Z,10.59
2024-03-05T19:16:17.360Z,10.55
2024-03-05T19:19:19.948Z,10.54
2024-03-05T19:22:21.936Z,10.50
2024-03-05T19:25:28.934Z,10.55
2024-03-05T19:28:34.095Z,10.55
2024-03-05T19:31:40.758Z,10.46
2024-03-05T19:34:42.710Z,10.55
2024-03-05T19:37:46.617Z,10.59
2024-03-05T19:40:49.718Z,10.59
2024-03-05T19:43:54.115Z,10.61
2024-03-05T19:46:59.114Z,10.57
2024-03-05T19:50:06.354Z,10.54
2024-03-05T19:53:11.116Z,10.51
2024-03-05T19:56:13.648Z,10.44
2024-03-05T19:59:16.009Z,10.40
2024-03-05T20:02:18.127Z,10.37
2024-03-05T20:05:20.902Z,10.31
2024-03-05T20:08:23.645Z,10.24
2024-03-05T20:11:28.135Z,10.22
2024-03-05T20:14:32.318Z,10.17
2024-03-05T20:17:37.572Z,10.09
2024-03-05T20:20:40.084Z,10.01
2024-03-05T20:23:43.996Z,9.94
2024-03-05T20:26:46.398Z,9.91
2024-03-05T20:29:49.224Z,9.86
2024-03-05T20:32:52.159Z,9.78
2024-03-05T20:35:55.220Z,9.63
2024-03-05T20:38:59.099Z,9.35
2024-03-05T20:42:01.930Z,9.31
2024-03-05T20:45:08.590Z,9.30
2024-03-05T20:48:10.845Z,9.33
2024-03-05T20:51:12.617Z,9.34
2024-03-05T20:54:14.856Z,9.32
2024-03-05T20:57:17.042Z,9.24
2024-03-05T21:00:25.555Z,9.17
2024-03-05T21:03:31.398Z,9.11
2024-03-05T21:06:33.447Z,9.10
2024-03-05T21:09:35.498Z,9.13
2024-03-05T21:12:41.105Z,9.10
2024-03-05T21:15:43.192Z,8.98
2024-03-05T21:18:45.240Z,8.98
2024-03-05T21:21:47.994Z,8.87
2024-03-05T21:24:50.336Z,8.82
2024-03-05T21:27:52.211Z,8.67
2024-03-05T21:30:54.021Z,8.28
2024-03-05T21:33:55.988Z,8.27
2024-03-05T21:36:57.799Z,8.15
2024-03-05T21:39:59.933Z,8.02
2024-03-05T21:43:01.766Z,8.04
2024-03-05T21:46:05.115Z,8.06
2024-03-05T21:49:07.160Z,8.18
2024-03-05T21:52:09.131Z,8.18
2024-03-05T21:55:11.720Z,8.10
2024-03-05T21:58:13.380Z,8.16
2024-03-05T22:01:15.161Z,8.21
2024-03-05T22:04:17.533Z,8.18
2024-03-05T22:07:19.582Z,8.01
2024-03-05T22:10:21.236Z,7.86
2024-03-05T22:13:22.988Z,7.79
2024-03-05T22:16:24.738Z,7.86
2024-03-05T22:19:26.505Z,7.86
2024-03-05T22:22:28.776Z,7.89
2024-03-05T22:25:30.577Z,7.92
2024-03-05T22:28:32.327Z,7.84
2024-03-05T22:31:34.057Z,7.90
2024-03-05T22:34:37.374Z,7.88
2024-03-05T22:37:40.251Z,7.86
2024-03-05T22:40:42.750Z,7.85
2024-03-05T22:43:44.819Z,7.78
2024-03-05T22:46:46.649Z,7.68
2024-03-05T22:49:49.531Z,7.67
2024-03-05T22:52:53.085Z,7.69
2024-03-05T22:55:55.423Z,7.65
2024-03-05T22:58:57.224Z,7.63
2024-03-05T23:01:59.139Z,7.62
2024-03-05T23:05:01.024Z,7.60
2024-03-05T23:08:02.964Z,7.62
2024-03-05T23:11:05.172Z,7.57
2024-03-05T23:14:07.014Z,7.57
2024-03-05T23:17:08.862Z,7.60
2024-03-05T23:20:13.862Z,7.57
2024-03-05T23:23:15.743Z,7.55
2024-03-05T23:26:17.554Z,7.53
2024-03-05T23:29:19.497Z,7.49
2024-03-05T23:32:21.635Z,7.41
2024-03-05T23:35:23.800Z,7.38
2024-03-05T23:38:25.566Z,7.28
2024-03-05T23:41:31.958Z,7.20
2024-03-05T23:44:34.303Z,7.00
2024-03-05T23:47:36.203Z,7.00
2024-03-05T23:50:37.924Z,6.99
2024-03-05T23:53:40.121Z,6.99
2024-03-05T23:56:42.004Z,7.01
2024-03-05T23:59:43.743Z,7.00
